sensor_id;sensor_type;location;lat;lon;timestamp;temperature;humidity
13686;DHT22;6915;48.296;8.874;2022-12-17T00:01:46;-9.50;99.90
13686;DHT22;6915;48.296;8.874;2022-12-17T00:04:32;-9.50;99.90
13686;DHT22;6915;48.296;8.874;2022-12-17T00:07:18;-9.60;99.90
13686;DHT22;6915;48.296;8.874;2022-12-17T00:10:06;-9.60;99.90
13686;DHT22;6915;48.296;8.874;2022-12-17T00:12:53;-9.60;99.90
13686;DHT22;6915;48.296;8.874;2022-12-17T00:15:40;-9.70;99.90
13686;DHT22;6915;48.296;8.874;2022-12-17T00:18:26;-9.80;99.90
13686;DHT22;6915;48.296;8.874;2022-12-17T00:21:13;-9.90;99.90
13686;DHT22;6915;48.296;8.874;2022-12-17T00:23:58;-10.00;99.90
13686;DHT22;6915;48.296;8.874;2022-12-17T00:26:44;-10.00;99.90
13686;DHT22;6915;48.296;8.874;2022-12-17T00:29:32;-10.10;99.90
13686;DHT22;6915;48.296;8.874;2022-12-17T00:32:19;-10.00;99.90
13686;DHT22;6915;48.296;8.874;2022-12-17T00:35:07;-10.00;99.90
13686;DHT22;6915;48.296;8.874;2022-12-17T00:37:53;-10.10;99.90
13686;DHT22;6915;48.296;8.874;2022-12-17T00:40:40;-10.20;99.90
13686;DHT22;6915;48.296;8.874;2022-12-17T00:43:26;-10.20;99.90
13686;DHT22;6915;48.296;8.874;2022-12-17T00:46:12;-10.20;99.90
13686;DHT22;6915;48.296;8.874;2022-12-17T00:49:00;-10.30;99.90
13686;DHT22;6915;48.296;8.874;2022-12-17T00:52:01;-10.40;99.90
13686;DHT22;6915;48.296;8.874;2022-12-17T00:54:49;-10.40;99.90
13686;DHT22;6915;48.296;8.874;2022-12-17T00:57:36;-10.50;99.90
13686;DHT22;6915;48.296;8.874;2022-12-17T01:00:22;-10.50;99.90
13686;DHT22;6915;48.296;8.874;2022-12-17T01:03:11;-10.50;99.90
13686;DHT22;6915;48.296;8.874;2022-12-17T01:06:02;-10.60;99.90
13686;DHT22;6915;48.296;8.874;2022-12-17T01:08:47;-10.50;99.90
13686;DHT22;6915;48.296;8.874;2022-12-17T01:11:34;-10.60;99.90
13686;DHT22;6915;48.296;8.874;2022-12-17T01:14:22;-10.60;99.90
13686;DHT22;6915;48.296;8.874;2022-12-17T01:17:08;-10.60;99.90
13686;DHT22;6915;48.296;8.874;2022-12-17T01:19:54;-10.60;99.90
13686;DHT22;6915;48.296;8.874;2022-12-17T01:22:42;-10.60;99.90
13686;DHT22;6915;48.296;8.874;2022-12-17T01:25:29;-10.80;99.90
13686;DHT22;6915;48.296;8.874;2022-12-17T01:28:20;-10.80;99.90
13686;DHT22;6915;48.296;8.874;2022-12-17T01:31:06;-11.00;99.90
13686;DHT22;6915;48.296;8.874;2022-12-17T01:33:53;-11.00;99.90
13686;DHT22;6915;48.296;8.874;2022-12-17T01:36:39;-11.00;99.90
13686;DHT22;6915;48.296;8.874;2022-12-17T01:39:27;-11.10;99.90
13686;DHT22;6915;48.296;8.874;2022-12-17T01:42:14;-11.10;99.90
13686;DHT22;6915;48.296;8.874;2022-12-17T01:45:00;-11.20;99.90
13686;DHT22;6915;48.296;8.874;2022-12-17T01:47:48;-11.20;99.90
13686;DHT22;6915;48.296;8.874;2022-12-17T01:50:38;-11.20;99.90
13686;DHT22;6915;48.296;8.874;2022-12-17T01:53:28;-11.20;99.90
13686;DHT22;6915;48.296;8.874;2022-12-17T01:56:17;-11.30;99.90
13686;DHT22;6915;48.296;8.874;2022-12-17T01:59:04;-11.30;99.90
13686;DHT22;6915;48.296;8.874;2022-12-17T02:01:51;-11.40;99.90
13686;DHT22;6915;48.296;8.874;2022-12-17T02:04:37;-11.40;99.90
13686;DHT22;6915;48.296;8.874;2022-12-17T02:07:39;-11.50;99.90
13686;DHT22;6915;48.296;8.874;2022-12-17T02:10:32;-11.40;99.90
13686;DHT22;6915;48.296;8.874;2022-12-17T02:13:23;-11.40;99.90
13686;DHT22;6915;48.296;8.874;2022-12-17T02:16:16;-11.50;99.90
13686;DHT22;6915;48.296;8.874;2022-12-17T02:19:11;-11.50;99.90
13686;DHT22;6915;48.296;8.874;2022-12-17T02:22:07;-11.50;99.90
13686;DHT22;6915;48.296;8.874;2022-12-17T02:24:57;-11.40;99.90
13686;DHT22;6915;48.296;8.874;2022-12-17T02:27:47;-11.40;99.90
13686;DHT22;6915;48.296;8.874;2022-12-17T02:30:34;-11.40;99.90
13686;DHT22;6915;48.296;8.874;2022-12-17T02:33:21;-11.40;99.90
13686;DHT22;6915;48.296;8.874;2022-12-17T02:36:22;-11.40;99.90
13686;DHT22;6915;48.296;8.874;2022-12-17T02:39:09;-11.40;99.90
13686;DHT22;6915;48.296;8.874;2022-12-17T02:41:57;-11.50;99.90
13686;DHT22;6915;48.296;8.874;2022-12-17T02:44:45;-11.60;99.90
13686;DHT22;6915;48.296;8.874;2022-12-17T02:47:32;-11.60;99.90
13686;DHT22;6915;48.296;8.874;2022-12-17T02:50:18;-11.60;99.90
13686;DHT22;6915;48.296;8.874;2022-12-17T02:53:05;-11.70;99.90
13686;DHT22;6915;48.296;8.874;2022-12-17T02:55:51;-11.70;99.90
13686;DHT22;6915;48.296;8.874;2022-12-17T02:58:37;-11.70;99.90
13686;DHT22;6915;48.296;8.874;2022-12-17T03:01:25;-11.80;99.90
13686;DHT22;6915;48.296;8.874;2022-12-17T03:04:11;-11.90;99.90
13686;DHT22;6915;48.296;8.874;2022-12-17T03:06:58;-11.90;99.90
13686;DHT22;6915;48.296;8.874;2022-12-17T03:09:44;-11.90;99.90
13686;DHT22;6915;48.296;8.874;2022-12-17T03:12:30;-11.90;99.90
13686;DHT22;6915;48.296;8.874;2022-12-17T03:15:16;-11.90;99.90
13686;DHT22;6915;48.296;8.874;2022-12-17T03:18:04;-11.90;99.90
13686;DHT22;6915;48.296;8.874;2022-12-17T03:20:53;-12.00;99.90
13686;DHT22;6915;48.296;8.874;2022-12-17T03:23:39;-11.90;99.90
13686;DHT22;6915;48.296;8.874;2022-12-17T03:26:27;-11.90;99.90
13686;DHT22;6915;48.296;8.874;2022-12-17T03:29:14;-11.90;99.90
13686;DHT22;6915;48.296;8.874;2022-12-17T03:32:00;-12.20;99.90
13686;DHT22;6915;48.296;8.874;2022-12-17T03:34:47;-12.20;99.90
13686;DHT22;6915;48.296;8.874;2022-12-17T03:37:33;-12.30;99.90
13686;DHT22;6915;48.296;8.874;2022-12-17T03:40:19;-12.40;99.90
13686;DHT22;6915;48.296;8.874;2022-12-17T03:43:09;-12.40;99.90
13686;DHT22;6915;48.296;8.874;2022-12-17T03:45:56;-12.40;99.90
13686;DHT22;6915;48.296;8.874;2022-12-17T03:48:43;-12.40;99.90
13686;DHT22;6915;48.296;8.874;2022-12-17T03:51:30;-12.40;99.90
13686;DHT22;6915;48.296;8.874;2022-12-17T03:54:16;-12.40;99.90
13686;DHT22;6915;48.296;8.874;2022-12-17T03:57:11;-12.40;99.90
13686;DHT22;6915;48.296;8.874;2022-12-17T03:59:57;-12.40;99.90
13686;DHT22;6915;48.296;8.874;2022-12-17T04:02:49;-12.30;99.90
13686;DHT22;6915;48.296;8.874;2022-12-17T04:05:36;-12.30;99.90
13686;DHT22;6915;48.296;8.874;2022-12-17T04:08:24;-12.30;99.90
13686;DHT22;6915;48.296;8.874;2022-12-17T04:11:10;-12.30;99.90
13686;DHT22;6915;48.296;8.874;2022-12-17T04:13:56;-12.40;99.90
13686;DHT22;6915;48.296;8.874;2022-12-17T04:16:42;-12.50;99.90
13686;DHT22;6915;48.296;8.874;2022-12-17T04:19:28;-12.60;99.90
13686;DHT22;6915;48.296;8.874;2022-12-17T04:22:15;-12.60;99.90
13686;DHT22;6915;48.296;8.874;2022-12-17T04:25:02;-12.70;99.90
13686;DHT22;6915;48.296;8.874;2022-12-17T04:27:57;-12.70;99.90
13686;DHT22;6915;48.296;8.874;2022-12-17T04:30:43;-12.70;99.90
13686;DHT22;6915;48.296;8.874;2022-12-17T04:33:30;-12.70;99.90
13686;DHT22;6915;48.296;8.874;2022-12-17T04:36:16;-12.70;99.90
13686;DHT22;6915;48.296;8.874;2022-12-17T04:39:10;-12.80;99.90
13686;DHT22;6915;48.296;8.874;2022-12-17T04:41:58;-12.80;99.90
13686;DHT22;6915;48.296;8.874;2022-12-17T04:44:44;-12.80;99.90
13686;DHT22;6915;48.296;8.874;2022-12-17T04:47:30;-12.70;99.90
13686;DHT22;6915;48.296;8.874;2022-12-17T04:50:17;-12.70;99.90
13686;DHT22;6915;48.296;8.874;2022-12-17T04:53:04;-12.80;99.90
13686;DHT22;6915;48.296;8.874;2022-12-17T04:55:52;-12.90;99.90
13686;DHT22;6915;48.296;8.874;2022-12-17T04:58:40;-12.90;99.90
13686;DHT22;6915;48.296;8.874;2022-12-17T05:01:26;-12.90;99.90
13686;DHT22;6915;48.296;8.874;2022-12-17T05:04:13;-12.90;99.90
13686;DHT22;6915;48.296;8.874;2022-12-17T05:06:59;-12.90;99.90
13686;DHT22;6915;48.296;8.874;2022-12-17T05:09:45;-13.00;99.90
13686;DHT22;6915;48.296;8.874;2022-12-17T05:12:32;-12.90;99.90
13686;DHT22;6915;48.296;8.874;2022-12-17T05:15:21;-12.90;99.90
13686;DHT22;6915;48.296;8.874;2022-12-17T05:18:08;-13.10;99.90
13686;DHT22;6915;48.296;8.874;2022-12-17T05:20:54;-13.20;99.90
13686;DHT22;6915;48.296;8.874;2022-12-17T05:23:40;-13.30;99.90
13686;DHT22;6915;48.296;8.874;2022-12-17T05:26:27;-13.20;99.90
13686;DHT22;6915;48.296;8.874;2022-12-17T05:29:14;-13.30;99.90
13686;DHT22;6915;48.296;8.874;2022-12-17T05:32:02;-13.40;99.90
13686;DHT22;6915;48.296;8.874;2022-12-17T05:34:48;-13.40;99.90
13686;DHT22;6915;48.296;8.874;2022-12-17T05:37:34;-13.40;99.90
13686;DHT22;6915;48.296;8.874;2022-12-17T05:40:20;-13.30;99.90
13686;DHT22;6915;48.296;8.874;2022-12-17T05:43:08;-13.30;99.90
13686;DHT22;6915;48.296;8.874;2022-12-17T05:45:55;-13.30;99.90
13686;DHT22;6915;48.296;8.874;2022-12-17T05:48:42;-13.20;99.90
13686;DHT22;6915;48.296;8.874;2022-12-17T05:51:28;-13.20;99.90
13686;DHT22;6915;48.296;8.874;2022-12-17T05:54:14;-13.30;99.90
13686;DHT22;6915;48.296;8.874;2022-12-17T05:57:01;-13.30;99.90
13686;DHT22;6915;48.296;8.874;2022-12-17T05:59:46;-13.30;99.90
13686;DHT22;6915;48.296;8.874;2022-12-17T06:02:33;-13.40;99.90
13686;DHT22;6915;48.296;8.874;2022-12-17T06:05:20;-13.60;99.90
13686;DHT22;6915;48.296;8.874;2022-12-17T06:08:08;-13.60;99.90
13686;DHT22;6915;48.296;8.874;2022-12-17T06:10:56;-13.50;99.90
13686;DHT22;6915;48.296;8.874;2022-12-17T06:13:42;-13.70;99.90
13686;DHT22;6915;48.296;8.874;2022-12-17T06:16:29;-13.70;99.90
13686;DHT22;6915;48.296;8.874;2022-12-17T06:19:15;-13.60;99.90
13686;DHT22;6915;48.296;8.874;2022-12-17T06:22:03;-13.60;99.90
13686;DHT22;6915;48.296;8.874;2022-12-17T06:24:49;-13.60;99.90
13686;DHT22;6915;48.296;8.874;2022-12-17T06:27:35;-13.50;99.90
13686;DHT22;6915;48.296;8.874;2022-12-17T06:30:22;-13.60;99.90
13686;DHT22;6915;48.296;8.874;2022-12-17T06:33:09;-13.60;99.90
13686;DHT22;6915;48.296;8.874;2022-12-17T06:35:57;-13.60;99.90
13686;DHT22;6915;48.296;8.874;2022-12-17T06:38:45;-13.70;99.90
13686;DHT22;6915;48.296;8.874;2022-12-17T06:41:31;-13.70;99.90
13686;DHT22;6915;48.296;8.874;2022-12-17T06:44:19;-13.70;99.90
13686;DHT22;6915;48.296;8.874;2022-12-17T06:47:05;-13.80;99.90
13686;DHT22;6915;48.296;8.874;2022-12-17T06:49:49;-13.80;99.90
13686;DHT22;6915;48.296;8.874;2022-12-17T06:52:35;-13.70;99.90
13686;DHT22;6915;48.296;8.874;2022-12-17T06:55:25;-13.60;99.90
13686;DHT22;6915;48.296;8.874;2022-12-17T06:58:12;-13.70;99.90
13686;DHT22;6915;48.296;8.874;2022-12-17T07:00:58;-13.60;99.90
13686;DHT22;6915;48.296;8.874;2022-12-17T07:03:50;-13.70;99.90
13686;DHT22;6915;48.296;8.874;2022-12-17T07:06:36;-13.80;99.90
13686;DHT22;6915;48.296;8.874;2022-12-17T07:09:22;-13.90;99.90
13686;DHT22;6915;48.296;8.874;2022-12-17T07:12:09;-13.90;99.90
13686;DHT22;6915;48.296;8.874;2022-12-17T07:14:55;-13.90;99.90
13686;DHT22;6915;48.296;8.874;2022-12-17T07:17:42;-13.90;99.90
13686;DHT22;6915;48.296;8.874;2022-12-17T07:20:28;-13.90;99.90
13686;DHT22;6915;48.296;8.874;2022-12-17T07:23:14;-13.80;99.90
13686;DHT22;6915;48.296;8.874;2022-12-17T07:26:00;-13.70;99.90
13686;DHT22;6915;48.296;8.874;2022-12-17T07:28:48;-13.80;99.90
13686;DHT22;6915;48.296;8.874;2022-12-17T07:31:34;-13.70;99.90
13686;DHT22;6915;48.296;8.874;2022-12-17T07:34:20;-13.60;99.90
13686;DHT22;6915;48.296;8.874;2022-12-17T07:37:06;-13.60;99.90
13686;DHT22;6915;48.296;8.874;2022-12-17T07:39:53;-13.60;99.90
13686;DHT22;6915;48.296;8.874;2022-12-17T07:42:39;-13.50;99.90
13686;DHT22;6915;48.296;8.874;2022-12-17T07:45:27;-13.40;99.90
13686;DHT22;6915;48.296;8.874;2022-12-17T07:48:13;-13.40;99.90
13686;DHT22;6915;48.296;8.874;2022-12-17T07:50:59;-13.30;99.90
13686;DHT22;6915;48.296;8.874;2022-12-17T07:53:46;-13.40;99.90
13686;DHT22;6915;48.296;8.874;2022-12-17T07:56:32;-13.40;99.90
13686;DHT22;6915;48.296;8.874;2022-12-17T07:59:19;-13.30;99.90
13686;DHT22;6915;48.296;8.874;2022-12-17T08:02:07;-13.30;99.90
13686;DHT22;6915;48.296;8.874;2022-12-17T08:04:54;-13.20;99.90
13686;DHT22;6915;48.296;8.874;2022-12-17T08:07:41;-13.20;99.90
13686;DHT22;6915;48.296;8.874;2022-12-17T08:10:28;-13.20;99.90
13686;DHT22;6915;48.296;8.874;2022-12-17T08:13:14;-13.20;99.90
13686;DHT22;6915;48.296;8.874;2022-12-17T08:16:08;-13.10;99.90
13686;DHT22;6915;48.296;8.874;2022-12-17T08:18:56;-13.10;99.90
13686;DHT22;6915;48.296;8.874;2022-12-17T08:21:42;-13.00;99.90
13686;DHT22;6915;48.296;8.874;2022-12-17T08:24:28;-12.80;99.90
13686;DHT22;6915;48.296;8.874;2022-12-17T08:27:14;-12.70;99.90
13686;DHT22;6915;48.296;8.874;2022-12-17T08:30:00;-12.70;99.90
13686;DHT22;6915;48.296;8.874;2022-12-17T08:32:46;-12.60;99.90
13686;DHT22;6915;48.296;8.874;2022-12-17T08:35:33;-12.50;99.90
13686;DHT22;6915;48.296;8.874;2022-12-17T08:38:19;-12.40;99.90
13686;DHT22;6915;48.296;8.874;2022-12-17T08:41:06;-12.40;99.90
13686;DHT22;6915;48.296;8.874;2022-12-17T08:43:52;-12.30;99.90
13686;DHT22;6915;48.296;8.874;2022-12-17T08:46:38;-12.10;99.90
13686;DHT22;6915;48.296;8.874;2022-12-17T08:49:24;-12.00;99.90
13686;DHT22;6915;48.296;8.874;2022-12-17T08:52:12;-11.90;99.90
13686;DHT22;6915;48.296;8.874;2022-12-17T08:54:58;-11.70;99.90
13686;DHT22;6915;48.296;8.874;2022-12-17T08:57:53;-11.60;99.90
13686;DHT22;6915;48.296;8.874;2022-12-17T09:00:40;-11.50;99.90
13686;DHT22;6915;48.296;8.874;2022-12-17T09:03:27;-11.40;99.90
13686;DHT22;6915;48.296;8.874;2022-12-17T09:06:13;-11.30;99.90
13686;DHT22;6915;48.296;8.874;2022-12-17T09:09:01;-11.20;99.90
13686;DHT22;6915;48.296;8.874;2022-12-17T09:11:50;-11.10;99.90
13686;DHT22;6915;48.296;8.874;2022-12-17T09:14:33;-11.00;99.90
13686;DHT22;6915;48.296;8.874;2022-12-17T09:17:19;-10.90;99.90
13686;DHT22;6915;48.296;8.874;2022-12-17T09:20:05;-10.80;99.90
13686;DHT22;6915;48.296;8.874;2022-12-17T09:22:50;-10.60;99.90
13686;DHT22;6915;48.296;8.874;2022-12-17T09:25:38;-10.60;99.90
13686;DHT22;6915;48.296;8.874;2022-12-17T09:28:24;-10.40;99.90
13686;DHT22;6915;48.296;8.874;2022-12-17T09:31:10;-10.30;99.90
13686;DHT22;6915;48.296;8.874;2022-12-17T09:33:57;-10.20;99.90
13686;DHT22;6915;48.296;8.874;2022-12-17T09:36:45;-10.00;99.90
13686;DHT22;6915;48.296;8.874;2022-12-17T09:39:30;-9.90;99.90
13686;DHT22;6915;48.296;8.874;2022-12-17T09:42:21;-9.70;99.90
13686;DHT22;6915;48.296;8.874;2022-12-17T09:45:16;-9.60;99.90
13686;DHT22;6915;48.296;8.874;2022-12-17T09:48:09;-9.40;99.90
13686;DHT22;6915;48.296;8.874;2022-12-17T09:50:58;-9.40;99.90
13686;DHT22;6915;48.296;8.874;2022-12-17T09:53:46;-9.30;99.90
13686;DHT22;6915;48.296;8.874;2022-12-17T09:56:34;-9.10;99.90
13686;DHT22;6915;48.296;8.874;2022-12-17T09:59:23;-9.00;99.90
13686;DHT22;6915;48.296;8.874;2022-12-17T10:02:15;-8.90;99.90
13686;DHT22;6915;48.296;8.874;2022-12-17T10:05:05;-8.80;99.90
13686;DHT22;6915;48.296;8.874;2022-12-17T10:07:53;-8.70;99.90
13686;DHT22;6915;48.296;8.874;2022-12-17T10:10:42;-8.60;99.90
13686;DHT22;6915;48.296;8.874;2022-12-17T10:13:29;-8.40;99.90
13686;DHT22;6915;48.296;8.874;2022-12-17T10:16:31;-8.40;99.90
13686;DHT22;6915;48.296;8.874;2022-12-17T10:19:23;-8.30;99.90
13686;DHT22;6915;48.296;8.874;2022-12-17T10:22:13;-8.20;99.90
13686;DHT22;6915;48.296;8.874;2022-12-17T10:25:03;-8.00;99.90
13686;DHT22;6915;48.296;8.874;2022-12-17T10:27:50;-8.00;99.90
13686;DHT22;6915;48.296;8.874;2022-12-17T10:30:37;-7.90;99.90
13686;DHT22;6915;48.296;8.874;2022-12-17T10:33:24;-7.80;99.90
13686;DHT22;6915;48.296;8.874;2022-12-17T10:36:22;-7.60;99.90
13686;DHT22;6915;48.296;8.874;2022-12-17T10:39:16;-7.40;99.90
13686;DHT22;6915;48.296;8.874;2022-12-17T10:42:16;-7.30;99.90
13686;DHT22;6915;48.296;8.874;2022-12-17T10:45:18;-7.10;99.90
13686;DHT22;6915;48.296;8.874;2022-12-17T10:48:14;-7.00;99.90
13686;DHT22;6915;48.296;8.874;2022-12-17T10:51:03;-6.80;99.90
13686;DHT22;6915;48.296;8.874;2022-12-17T10:53:51;-6.70;99.90
13686;DHT22;6915;48.296;8.874;2022-12-17T10:56:37;-6.60;99.90
13686;DHT22;6915;48.296;8.874;2022-12-17T10:59:32;-6.60;99.90
13686;DHT22;6915;48.296;8.874;2022-12-17T11:02:24;-6.40;99.90
13686;DHT22;6915;48.296;8.874;2022-12-17T11:05:22;-6.20;99.90
13686;DHT22;6915;48.296;8.874;2022-12-17T11:08:10;-6.10;99.90
13686;DHT22;6915;48.296;8.874;2022-12-17T11:10:58;-5.90;99.90
13686;DHT22;6915;48.296;8.874;2022-12-17T11:13:46;-5.60;99.90
13686;DHT22;6915;48.296;8.874;2022-12-17T11:16:35;-5.60;99.90
13686;DHT22;6915;48.296;8.874;2022-12-17T11:19:31;-5.50;99.90
13686;DHT22;6915;48.296;8.874;2022-12-17T11:22:24;-5.30;99.90
13686;DHT22;6915;48.296;8.874;2022-12-17T11:25:23;-5.10;99.90
13686;DHT22;6915;48.296;8.874;2022-12-17T11:28:14;-5.00;99.90
13686;DHT22;6915;48.296;8.874;2022-12-17T11:34:15;-5.00;99.90
13686;DHT22;6915;48.296;8.874;2022-12-17T11:37:08;-4.80;99.90
13686;DHT22;6915;48.296;8.874;2022-12-17T11:40:02;-4.60;99.90
13686;DHT22;6915;48.296;8.874;2022-12-17T11:42:56;-4.40;99.90
13686;DHT22;6915;48.296;8.874;2022-12-17T11:45:56;-4.30;99.90
13686;DHT22;6915;48.296;8.874;2022-12-17T11:48:47;-4.10;99.90
13686;DHT22;6915;48.296;8.874;2022-12-17T11:51:40;-4.00;99.90
13686;DHT22;6915;48.296;8.874;2022-12-17T11:54:38;-4.00;99.90
13686;DHT22;6915;48.296;8.874;2022-12-17T11:57:31;-4.10;99.90
13686;DHT22;6915;48.296;8.874;2022-12-17T12:00:31;-4.10;99.90
13686;DHT22;6915;48.296;8.874;2022-12-17T12:03:28;-4.20;99.90
13686;DHT22;6915;48.296;8.874;2022-12-17T12:06:22;-4.20;99.90
13686;DHT22;6915;48.296;8.874;2022-12-17T12:09:18;-4.20;99.90
13686;DHT22;6915;48.296;8.874;2022-12-17T12:12:12;-4.30;99.90
13686;DHT22;6915;48.296;8.874;2022-12-17T12:15:05;-4.40;99.90
13686;DHT22;6915;48.296;8.874;2022-12-17T12:17:59;-4.40;99.90
13686;DHT22;6915;48.296;8.874;2022-12-17T12:21:04;-4.40;99.90
13686;DHT22;6915;48.296;8.874;2022-12-17T12:23:59;-4.40;99.90
13686;DHT22;6915;48.296;8.874;2022-12-17T12:26:55;-4.40;99.90
13686;DHT22;6915;48.296;8.874;2022-12-17T12:29:50;-4.50;99.90
13686;DHT22;6915;48.296;8.874;2022-12-17T12:32:45;-4.60;99.90
13686;DHT22;6915;48.296;8.874;2022-12-17T12:35:36;-4.60;99.90
13686;DHT22;6915;48.296;8.874;2022-12-17T12:38:26;-4.50;99.90
13686;DHT22;6915;48.296;8.874;2022-12-17T12:41:32;-4.50;99.90
13686;DHT22;6915;48.296;8.874;2022-12-17T12:44:27;-4.50;99.90
13686;DHT22;6915;48.296;8.874;2022-12-17T12:47:22;-4.50;99.90
13686;DHT22;6915;48.296;8.874;2022-12-17T12:50:16;-4.40;99.90
13686;DHT22;6915;48.296;8.874;2022-12-17T12:53:06;-4.50;99.90
13686;DHT22;6915;48.296;8.874;2022-12-17T12:55:54;-4.40;99.90
13686;DHT22;6915;48.296;8.874;2022-12-17T12:58:40;-4.50;99.90
13686;DHT22;6915;48.296;8.874;2022-12-17T13:01:34;-4.40;99.90
13686;DHT22;6915;48.296;8.874;2022-12-17T13:04:37;-4.40;99.90
13686;DHT22;6915;48.296;8.874;2022-12-17T13:07:25;-4.20;99.90
13686;DHT22;6915;48.296;8.874;2022-12-17T13:09:57;-4.20;99.90
13686;DHT22;6915;48.296;8.874;2022-12-17T13:12:30;-4.00;99.90
13686;DHT22;6915;48.296;8.874;2022-12-17T13:15:15;-4.10;99.90
13686;DHT22;6915;48.296;8.874;2022-12-17T13:17:54;-4.10;99.90
13686;DHT22;6915;48.296;8.874;2022-12-17T13:20:26;-4.10;99.90
13686;DHT22;6915;48.296;8.874;2022-12-17T13:23:12;-4.30;99.90
13686;DHT22;6915;48.296;8.874;2022-12-17T13:25:43;-4.40;99.90
13686;DHT22;6915;48.296;8.874;2022-12-17T13:28:29;-4.30;99.90
13686;DHT22;6915;48.296;8.874;2022-12-17T13:31:00;-4.20;99.90
13686;DHT22;6915;48.296;8.874;2022-12-17T13:33:32;-4.30;99.90
13686;DHT22;6915;48.296;8.874;2022-12-17T13:36:07;-4.40;99.90
13686;DHT22;6915;48.296;8.874;2022-12-17T13:38:48;-4.40;99.90
13686;DHT22;6915;48.296;8.874;2022-12-17T13:41:20;-4.40;99.90
13686;DHT22;6915;48.296;8.874;2022-12-17T13:43:52;-4.50;99.90
13686;DHT22;6915;48.296;8.874;2022-12-17T13:46:24;-4.50;99.90
13686;DHT22;6915;48.296;8.874;2022-12-17T13:48:53;-4.50;99.90
13686;DHT22;6915;48.296;8.874;2022-12-17T13:51:24;-4.50;99.90
13686;DHT22;6915;48.296;8.874;2022-12-17T13:53:54;-4.50;99.90
13686;DHT22;6915;48.296;8.874;2022-12-17T13:56:27;-4.50;99.90
13686;DHT22;6915;48.296;8.874;2022-12-17T13:58:57;-4.50;99.90
13686;DHT22;6915;48.296;8.874;2022-12-17T14:01:28;-4.50;99.90
13686;DHT22;6915;48.296;8.874;2022-12-17T14:03:58;-4.50;99.90
13686;DHT22;6915;48.296;8.874;2022-12-17T14:06:31;-4.30;99.90
13686;DHT22;6915;48.296;8.874;2022-12-17T14:09:00;-4.40;99.90
13686;DHT22;6915;48.296;8.874;2022-12-17T14:11:31;-4.40;99.90
13686;DHT22;6915;48.296;8.874;2022-12-17T14:14:22;-4.50;99.90
13686;DHT22;6915;48.296;8.874;2022-12-17T14:16:53;-4.50;99.90
13686;DHT22;6915;48.296;8.874;2022-12-17T14:19:22;-4.40;99.90
13686;DHT22;6915;48.296;8.874;2022-12-17T14:21:53;-4.30;99.90
13686;DHT22;6915;48.296;8.874;2022-12-17T14:24:24;-4.30;99.90
13686;DHT22;6915;48.296;8.874;2022-12-17T14:26:58;-4.40;99.90
13686;DHT22;6915;48.296;8.874;2022-12-17T14:29:28;-4.50;99.90
13686;DHT22;6915;48.296;8.874;2022-12-17T14:31:59;-4.50;99.90
13686;DHT22;6915;48.296;8.874;2022-12-17T14:34:38;-4.60;99.90
13686;DHT22;6915;48.296;8.874;2022-12-17T14:37:18;-4.70;99.90
13686;DHT22;6915;48.296;8.874;2022-12-17T14:39:48;-4.90;99.90
13686;DHT22;6915;48.296;8.874;2022-12-17T14:42:21;-5.00;99.90
13686;DHT22;6915;48.296;8.874;2022-12-17T14:44:54;-5.00;99.90
13686;DHT22;6915;48.296;8.874;2022-12-17T14:47:27;-4.90;99.90
13686;DHT22;6915;48.296;8.874;2022-12-17T14:50:01;-5.20;99.90
13686;DHT22;6915;48.296;8.874;2022-12-17T14:52:44;-5.40;99.90
13686;DHT22;6915;48.296;8.874;2022-12-17T14:55:30;-5.60;99.90
13686;DHT22;6915;48.296;8.874;2022-12-17T14:58:23;-5.80;99.90
13686;DHT22;6915;48.296;8.874;2022-12-17T15:00:54;-6.10;99.90
13686;DHT22;6915;48.296;8.874;2022-12-17T15:03:28;-6.20;99.90
13686;DHT22;6915;48.296;8.874;2022-12-17T15:05:59;-6.40;99.90
13686;DHT22;6915;48.296;8.874;2022-12-17T15:08:32;-6.50;99.90
13686;DHT22;6915;48.296;8.874;2022-12-17T15:11:01;-6.70;99.90
13686;DHT22;6915;48.296;8.874;2022-12-17T15:13:32;-6.90;99.90
13686;DHT22;6915;48.296;8.874;2022-12-17T15:16:06;-7.10;99.90
13686;DHT22;6915;48.296;8.874;2022-12-17T15:18:35;-7.20;99.90
13686;DHT22;6915;48.296;8.874;2022-12-17T15:21:04;-7.20;99.90
13686;DHT22;6915;48.296;8.874;2022-12-17T15:23:33;-7.50;99.90
13686;DHT22;6915;48.296;8.874;2022-12-17T15:26:07;-7.60;99.90
13686;DHT22;6915;48.296;8.874;2022-12-17T15:33:47;-7.90;99.90
13686;DHT22;6915;48.296;8.874;2022-12-17T15:36:18;-8.00;99.90
13686;DHT22;6915;48.296;8.874;2022-12-17T15:38:46;-8.10;99.90
13686;DHT22;6915;48.296;8.874;2022-12-17T15:41:15;-8.30;99.90
13686;DHT22;6915;48.296;8.874;2022-12-17T15:44:02;-8.40;99.90
13686;DHT22;6915;48.296;8.874;2022-12-17T15:54:16;-8.90;99.90
13686;DHT22;6915;48.296;8.874;2022-12-17T15:56:53;-8.90;99.90
13686;DHT22;6915;48.296;8.874;2022-12-17T15:59:23;-9.00;99.90
13686;DHT22;6915;48.296;8.874;2022-12-17T16:01:52;-9.10;99.90
13686;DHT22;6915;48.296;8.874;2022-12-17T16:04:20;-9.20;99.90
13686;DHT22;6915;48.296;8.874;2022-12-17T16:06:49;-9.30;99.90
13686;DHT22;6915;48.296;8.874;2022-12-17T16:09:19;-9.40;99.90
13686;DHT22;6915;48.296;8.874;2022-12-17T16:11:51;-9.50;99.90
13686;DHT22;6915;48.296;8.874;2022-12-17T16:14:19;-9.60;99.90
13686;DHT22;6915;48.296;8.874;2022-12-17T16:16:49;-9.60;99.90
13686;DHT22;6915;48.296;8.874;2022-12-17T16:19:18;-9.70;99.90
13686;DHT22;6915;48.296;8.874;2022-12-17T16:21:47;-9.70;99.90
13686;DHT22;6915;48.296;8.874;2022-12-17T16:24:15;-9.80;99.90
13686;DHT22;6915;48.296;8.874;2022-12-17T16:26:45;-9.80;99.90
13686;DHT22;6915;48.296;8.874;2022-12-17T16:29:15;-9.80;99.90
13686;DHT22;6915;48.296;8.874;2022-12-17T16:31:44;-9.90;99.90
13686;DHT22;6915;48.296;8.874;2022-12-17T16:39:22;-10.20;99.90
13686;DHT22;6915;48.296;8.874;2022-12-17T16:41:52;-10.30;99.90
13686;DHT22;6915;48.296;8.874;2022-12-17T16:44:21;-10.40;99.90
13686;DHT22;6915;48.296;8.874;2022-12-17T16:46:50;-10.50;99.90
13686;DHT22;6915;48.296;8.874;2022-12-17T16:49:20;-10.50;99.90
13686;DHT22;6915;48.296;8.874;2022-12-17T16:51:51;-10.60;99.90
13686;DHT22;6915;48.296;8.874;2022-12-17T16:54:21;-10.70;99.90
13686;DHT22;6915;48.296;8.874;2022-12-17T16:56:54;-10.70;99.90
13686;DHT22;6915;48.296;8.874;2022-12-17T16:59:23;-10.70;99.90
13686;DHT22;6915;48.296;8.874;2022-12-17T17:04:27;-10.80;99.90
13686;DHT22;6915;48.296;8.874;2022-12-17T17:06:58;-10.80;99.90
13686;DHT22;6915;48.296;8.874;2022-12-17T17:09:33;-10.80;99.90
13686;DHT22;6915;48.296;8.874;2022-12-17T17:12:03;-10.80;99.90
13686;DHT22;6915;48.296;8.874;2022-12-17T17:14:42;-10.70;99.90
13686;DHT22;6915;48.296;8.874;2022-12-17T17:17:12;-10.60;99.90
13686;DHT22;6915;48.296;8.874;2022-12-17T17:19:46;-10.80;99.90
13686;DHT22;6915;48.296;8.874;2022-12-17T17:22:33;-10.90;99.90
13686;DHT22;6915;48.296;8.874;2022-12-17T17:25:08;-11.00;99.90
13686;DHT22;6915;48.296;8.874;2022-12-17T17:27:49;-11.00;99.90
13686;DHT22;6915;48.296;8.874;2022-12-17T17:30:30;-11.00;99.90
13686;DHT22;6915;48.296;8.874;2022-12-17T17:32:59;-11.10;99.90
13686;DHT22;6915;48.296;8.874;2022-12-17T17:35:27;-11.20;99.90
13686;DHT22;6915;48.296;8.874;2022-12-17T17:37:56;-11.20;99.90
13686;DHT22;6915;48.296;8.874;2022-12-17T17:40:26;-11.10;99.90
13686;DHT22;6915;48.296;8.874;2022-12-17T17:42:57;-11.30;99.90
13686;DHT22;6915;48.296;8.874;2022-12-17T17:45:28;-11.30;99.90
13686;DHT22;6915;48.296;8.874;2022-12-17T17:47:59;-11.30;99.90
13686;DHT22;6915;48.296;8.874;2022-12-17T17:50:29;-11.40;99.90